Time;durP1;ratioP1;P1;durP2;ratioP2;P2;SDS_P1;SDS_P2;PMS_P1;PMS_P2;Temp;Humidity;BMP_temperature;BMP_pressure;BME280_temperature;BME280_humidity;BME280_pressure;Samples;Min_cycle;Max_cycle;Signal;HPM_P1;HPM_P2
2024/04/12 00:01:09;;;;;;;1.40;1.30;;;;;;;;;;5379949;26;20004;-77
2024/04/12 00:03:36;;;;;;;1.30;1.20;;;;;;;;;;5409232;26;20020;-77
2024/04/12 00:06:06;;;;;;;1.33;1.20;;;;;;;;;;5386025;26;20007;-77
2024/04/12 00:08:34;;;;;;;1.20;1.10;;;;;;;;;;5413720;26;19996;-76
2024/04/12 00:11:02;;;;;;;1.13;1.02;;;;;;;;;;5408846;26;20007;-78
2024/04/12 00:13:31;;;;;;;1.35;1.27;;;;;;;;;;5418089;26;20329;-77
2024/04/12 00:16:03;;;;;;;1.00;1.00;;;;;;;;;;5417385;26;20000;-77
2024/04/12 00:18:30;;;;;;;1.00;1.00;;;;;;;;;;5417591;26;20011;-76
2024/04/12 00:21:01;;;;;;;0.98;0.95;;;;;;;;;;5403855;26;20007;-76
2024/04/12 00:23:30;;;;;;;1.00;0.90;;;;;;;;;;5446074;26;20093;-77
2024/04/12 00:26:00;;;;;;;0.95;0.95;;;;;;;;;;5411884;26;20000;-77
2024/04/12 00:28:32;;;;;;;1.00;1.00;;;;;;;;;;5406140;26;19998;-76
2024/04/12 00:31:02;;;;;;;1.30;1.20;;;;;;;;;;5403968;26;20066;-77
2024/04/12 00:33:31;;;;;;;0.85;0.85;;;;;;;;;;5417977;26;20552;-77
2024/04/12 00:36:08;;;;;;;1.00;1.00;;;;;;;;;;5417979;26;20337;-77
2024/04/12 00:38:37;;;;;;;0.70;0.70;;;;;;;;;;5394477;26;20006;-76
2024/04/12 00:41:18;;;;;;;0.90;0.90;;;;;;;;;;5402416;26;20461;-76
2024/04/12 00:43:52;;;;;;;0.85;0.85;;;;;;;;;;5445981;26;20456;-77
2024/04/12 00:46:19;;;;;;;0.70;0.70;;;;;;;;;;5417965;26;20329;-77
2024/04/12 00:48:46;;;;;;;0.80;0.80;;;;;;;;;;5417990;26;20004;-77
2024/04/12 00:51:15;;;;;;;0.90;0.90;;;;;;;;;;5434450;26;20110;-76
2024/04/12 00:53:43;;;;;;;0.80;0.80;;;;;;;;;;5435007;26;20005;-76
2024/04/12 00:56:12;;;;;;;0.75;0.75;;;;;;;;;;5405452;26;20014;-76
2024/04/12 00:58:41;;;;;;;0.60;0.60;;;;;;;;;;5417034;26;20007;-77
2024/04/12 01:01:11;;;;;;;0.80;0.80;;;;;;;;;;5402891;26;19996;-76
2024/04/12 01:03:45;;;;;;;0.68;0.68;;;;;;;;;;5421923;26;19999;-76
2024/04/12 01:06:15;;;;;;;0.90;0.90;;;;;;;;;;5437937;26;20000;-75
2024/04/12 01:08:43;;;;;;;0.90;0.85;;;;;;;;;;5475832;26;20035;-76
2024/04/12 01:11:11;;;;;;;0.65;0.65;;;;;;;;;;5401843;26;20003;-76
2024/04/12 01:13:37;;;;;;;0.73;0.73;;;;;;;;;;5438339;26;20195;-76
2024/04/12 01:16:07;;;;;;;0.70;0.70;;;;;;;;;;5438637;26;20053;-76
2024/04/12 01:18:34;;;;;;;0.65;0.65;;;;;;;;;;5418215;26;20473;-77
2024/04/12 01:21:03;;;;;;;0.88;0.88;;;;;;;;;;5424097;26;20317;-76
2024/04/12 01:23:33;;;;;;;0.90;0.90;;;;;;;;;;5416531;26;20064;-78
2024/04/12 01:25:59;;;;;;;0.60;0.60;;;;;;;;;;5397745;26;20015;-77
2024/04/12 01:28:27;;;;;;;1.00;1.00;;;;;;;;;;5401606;26;20043;-77
2024/04/12 01:30:59;;;;;;;0.60;0.60;;;;;;;;;;5412481;26;20000;-77
2024/04/12 01:33:26;;;;;;;1.02;0.95;;;;;;;;;;5407421;26;20036;-77
2024/04/12 01:35:53;;;;;;;1.40;1.30;;;;;;;;;;5417127;26;19992;-77
2024/04/12 01:38:21;;;;;;;1.05;1.05;;;;;;;;;;5417094;26;19999;-77
2024/04/12 01:40:57;;;;;;;1.60;1.15;;;;;;;;;;5415684;26;20010;-78
2024/04/12 01:43:26;;;;;;;1.00;1.00;;;;;;;;;;5417492;26;20458;-78
2024/04/12 01:45:54;;;;;;;1.17;1.02;;;;;;;;;;5417058;26;20464;-77
2024/04/12 01:48:25;;;;;;;1.60;1.50;;;;;;;;;;5417523;26;19995;-77
2024/04/12 01:50:51;;;;;;;1.30;1.17;;;;;;;;;;5418025;26;19999;-77
2024/04/12 01:53:23;;;;;;;1.42;1.33;;;;;;;;;;5417742;26;20014;-77
2024/04/12 01:55:50;;;;;;;;;;;;;;;;;;5445758;26;20072;-77
2024/04/12 01:58:20;;;;;;;2.38;1.75;;;;;;;;;;5401852;26;20031;-77
2024/04/12 02:00:46;;;;;;;1.67;1.58;;;;;;;;;;5410328;26;19995;-77
2024/04/12 02:03:13;;;;;;;1.60;1.50;;;;;;;;;;5417144;26;20011;-77
2024/04/12 02:05:39;;;;;;;1.45;1.35;;;;;;;;;;5417306;26;20068;-77
2024/04/12 02:08:39;;;;;;;1.50;1.40;;;;;;;;;;5420189;26;19999;-77
2024/04/12 02:11:05;;;;;;;1.33;1.23;;;;;;;;;;5399915;26;20023;-77
2024/04/12 02:13:35;;;;;;;1.90;1.73;;;;;;;;;;5410172;26;19999;-76
2024/04/12 02:16:02;;;;;;;1.50;1.40;;;;;;;;;;5410106;26;20482;-76
2024/04/12 02:18:33;;;;;;;1.70;1.60;;;;;;;;;;5409205;26;20007;-77
2024/04/12 02:21:05;;;;;;;1.30;1.25;;;;;;;;;;5409694;26;20392;-76
2024/04/12 02:23:34;;;;;;;1.20;1.10;;;;;;;;;;5412817;26;19991;-77
2024/04/12 02:26:02;;;;;;;1.25;1.20;;;;;;;;;;5415902;26;20677;-77
2024/04/12 02:28:28;;;;;;;1.40;1.30;;;;;;;;;;5416512;26;20073;-76
2024/04/12 02:30:57;;;;;;;1.35;1.25;;;;;;;;;;5416527;26;19995;-77
2024/04/12 02:33:30;;;;;;;1.58;1.48;;;;;;;;;;5415992;26;20000;-77
2024/04/12 02:36:16;;;;;;;1.35;1.25;;;;;;;;;;5414431;26;20346;-77
2024/04/12 02:38:43;;;;;;;1.35;1.25;;;;;;;;;;5401168;26;20004;-77
2024/04/12 02:41:13;;;;;;;1.30;1.20;;;;;;;;;;5407513;26;20069;-76
2024/04/12 02:43:40;;;;;;;1.52;1.42;;;;;;;;;;5388241;26;19996;-77
2024/04/12 02:46:10;;;;;;;1.20;1.20;;;;;;;;;;5380902;26;20000;-78
2024/04/12 02:48:40;;;;;;;1.40;1.30;;;;;;;;;;5395552;26;20004;-77
2024/04/12 02:51:06;;;;;;;1.98;1.60;;;;;;;;;;5381595;26;20000;-77
2024/04/12 02:53:36;;;;;;;2.92;1.70;;;;;;;;;;5396552;26;20000;-77
2024/04/12 02:56:09;;;;;;;1.80;1.70;;;;;;;;;;5426274;26;19992;-77
2024/04/12 02:58:42;;;;;;;1.95;1.85;;;;;;;;;;5419410;26;20074;-76
2024/04/12 03:01:12;;;;;;;2.08;1.88;;;;;;;;;;5403756;26;19995;-77
2024/04/12 03:03:46;;;;;;;1.98;1.55;;;;;;;;;;5444149;26;20338;-76
2024/04/12 03:06:13;;;;;;;1.55;1.45;;;;;;;;;;5415726;26;20043;-76
2024/04/12 03:08:44;;;;;;;1.50;1.40;;;;;;;;;;5415500;26;20587;-77
2024/04/12 03:11:14;;;;;;;1.70;1.52;;;;;;;;;;5414058;26;20000;-78
2024/04/12 03:13:44;;;;;;;1.25;1.20;;;;;;;;;;5409124;26;20068;-77
2024/04/12 03:16:14;;;;;;;1.50;1.40;;;;;;;;;;5444007;26;20004;-77
2024/04/12 03:18:46;;;;;;;1.35;1.25;;;;;;;;;;5414387;26;20000;-77
2024/04/12 03:21:16;;;;;;;1.80;1.55;;;;;;;;;;5415725;26;20007;-77
2024/04/12 03:23:46;;;;;;;1.60;1.50;;;;;;;;;;5403694;26;19996;-77
2024/04/12 03:26:14;;;;;;;1.90;1.70;;;;;;;;;;5413492;26;20004;-77
2024/04/12 03:28:41;;;;;;;1.75;1.52;;;;;;;;;;5414502;26;19991;-77
2024/04/12 03:31:07;;;;;;;2.10;1.88;;;;;;;;;;5402150;26;19996;-77
2024/04/12 03:33:45;;;;;;;1.73;1.63;;;;;;;;;;5401549;26;20003;-77
2024/04/12 03:36:39;;;;;;;1.77;1.67;;;;;;;;;;5394659;26;19996;-77
2024/04/12 03:41:50;;;;;;;1.90;1.73;;;;;;;;;;5415081;26;20010;-77
2024/04/12 03:44:18;;;;;;;2.03;1.83;;;;;;;;;;5414975;26;20346;-77
2024/04/12 03:46:47;;;;;;;1.60;1.50;;;;;;;;;;5402957;26;20007;-77
2024/04/12 03:49:14;;;;;;;1.60;1.38;;;;;;;;;;5418797;26;20299;-77
2024/04/12 03:51:46;;;;;;;1.63;1.52;;;;;;;;;;5418657;26;20072;-77
2024/04/12 03:54:18;;;;;;;1.63;1.52;;;;;;;;;;5418852;26;20477;-77
2024/04/12 03:56:50;;;;;;;1.63;1.52;;;;;;;;;;5418699;26;20460;-77
2024/04/12 03:59:28;;;;;;;1.48;1.38;;;;;;;;;;5419078;26;20064;-77
2024/04/12 04:01:55;;;;;;;1.55;1.45;;;;;;;;;;5414140;26;20453;-77
2024/04/12 04:04:25;;;;;;;1.52;1.42;;;;;;;;;;5393890;26;20000;-77
2024/04/12 04:06:55;;;;;;;1.50;1.40;;;;;;;;;;5418710;26;19999;-76
2024/04/12 04:09:27;;;;;;;1.33;1.23;;;;;;;;;;5392619;26;20008;-77
2024/04/12 04:11:53;;;;;;;;;;;;;;;;;;5417281;26;20014;-77
2024/04/12 04:14:20;;;;;;;1.60;1.48;;;;;;;;;;5416859;26;19925;-78
2024/04/12 04:16:49;;;;;;;1.92;1.42;;;;;;;;;;5411938;26;19996;-77
2024/04/12 04:19:17;;;;;;;1.00;1.00;;;;;;;;;;5417451;26;20003;-77
2024/04/12 04:21:43;;;;;;;1.42;1.33;;;;;;;;;;5412841;26;19997;-77
2024/04/12 04:24:10;;;;;;;1.13;1.13;;;;;;;;;;5424697;26;20006;-77
2024/04/12 04:26:36;;;;;;;1.20;1.10;;;;;;;;;;5435027;26;20003;-76
2024/04/12 04:29:03;;;;;;;1.00;1.00;;;;;;;;;;5421606;26;19995;-76
2024/04/12 04:31:44;;;;;;;1.10;1.10;;;;;;;;;;5422769;26;19995;-78
2024/04/12 04:34:12;;;;;;;1.15;1.05;;;;;;;;;;5414615;26;20423;-78
2024/04/12 04:36:39;;;;;;;0.95;0.95;;;;;;;;;;5410549;26;20011;-78
2024/04/12 04:39:14;;;;;;;0.88;0.88;;;;;;;;;;5439490;26;19995;-78
2024/04/12 04:41:42;;;;;;;1.23;0.90;;;;;;;;;;5423591;26;20466;-78
2024/04/12 04:44:08;;;;;;;1.02;0.93;;;;;;;;;;5419165;26;19999;-78
2024/04/12 04:46:34;;;;;;;0.90;0.90;;;;;;;;;;5446768;26;20318;-77
2024/04/12 04:49:01;;;;;;;1.30;1.20;;;;;;;;;;5417483;26;20067;-78
2024/04/12 04:51:27;;;;;;;0.90;0.90;;;;;;;;;;5420850;26;20353;-78
2024/04/12 04:53:53;;;;;;;1.02;0.90;;;;;;;;;;5434220;26;20004;-78
2024/04/12 04:56:28;;;;;;;0.70;0.70;;;;;;;;;;5428790;26;19988;-77
2024/04/12 04:58:54;;;;;;;0.80;0.80;;;;;;;;;;5418355;26;20006;-76
2024/04/12 05:01:24;;;;;;;0.80;0.80;;;;;;;;;;5419289;26;20460;-78
2024/04/12 05:03:52;;;;;;;0.80;0.80;;;;;;;;;;5447129;26;20140;-77
2024/04/12 05:06:25;;;;;;;1.10;1.00;;;;;;;;;;5418748;26;20000;-77
2024/04/12 05:08:55;;;;;;;0.80;0.80;;;;;;;;;;5400220;26;20286;-78
2024/04/12 05:11:23;;;;;;;0.60;0.60;;;;;;;;;;5393640;26;20015;-78
2024/04/12 05:13:55;;;;;;;1.20;1.08;;;;;;;;;;5417985;26;20340;-77
2024/04/12 05:16:22;;;;;;;1.00;1.00;;;;;;;;;;5405942;26;20390;-78
2024/04/12 05:18:55;;;;;;;0.80;0.80;;;;;;;;;;5417587;26;20454;-77
2024/04/12 05:21:23;;;;;;;1.23;0.90;;;;;;;;;;5417863;26;20003;-77
2024/04/12 05:23:51;;;;;;;1.23;0.93;;;;;;;;;;5414588;26;20000;-77
2024/04/12 05:26:18;;;;;;;0.90;0.90;;;;;;;;;;5413769;26;20024;-77
2024/04/12 05:28:44;;;;;;;0.88;0.88;;;;;;;;;;5417176;26;20501;-76
2024/04/12 05:31:12;;;;;;;1.35;1.23;;;;;;;;;;5418725;26;19995;-77
2024/04/12 05:33:42;;;;;;;1.10;1.00;;;;;;;;;;5418348;26;20007;-77
2024/04/12 05:36:09;;;;;;;0.90;0.90;;;;;;;;;;5416315;26;20019;-77
2024/04/12 05:38:36;;;;;;;0.80;0.80;;;;;;;;;;5403473;26;19997;-76
2024/04/12 05:41:04;;;;;;;1.30;1.20;;;;;;;;;;5412152;26;20011;-77
2024/04/12 05:43:31;;;;;;;0.80;0.80;;;;;;;;;;5409310;26;20006;-77
2024/04/12 05:45:58;;;;;;;1.10;1.00;;;;;;;;;;5417968;26;20000;-78
2024/04/12 05:48:26;;;;;;;1.38;1.10;;;;;;;;;;5418035;26;20360;-76
2024/04/12 05:50:58;;;;;;;0.80;0.80;;;;;;;;;;5418566;26;20087;-78
2024/04/12 05:53:30;;;;;;;0.80;0.80;;;;;;;;;;5418372;26;20011;-78
2024/04/12 05:58:41;;;;;;;0.70;0.70;;;;;;;;;;5418655;26;20086;-78
2024/04/12 06:01:08;;;;;;;0.60;0.60;;;;;;;;;;5418354;26;20032;-78
2024/04/12 06:03:35;;;;;;;0.98;0.73;;;;;;;;;;5418240;26;19995;-77
2024/04/12 06:06:05;;;;;;;0.60;0.60;;;;;;;;;;5388030;26;19999;-78
2024/04/12 06:08:35;;;;;;;0.50;0.50;;;;;;;;;;5416154;26;19999;-78
2024/04/12 06:11:03;;;;;;;0.80;0.80;;;;;;;;;;5398090;26;20007;-77
2024/04/12 06:13:29;;;;;;;1.00;1.00;;;;;;;;;;5409547;26;19999;-77
2024/04/12 06:15:55;;;;;;;1.90;1.38;;;;;;;;;;5421055;26;19999;-77
2024/04/12 06:18:22;;;;;;;1.40;1.30;;;;;;;;;;5422731;26;19999;-77
2024/04/12 06:20:48;;;;;;;1.30;1.13;;;;;;;;;;5434248;26;19996;-77
2024/04/12 06:23:15;;;;;;;1.17;1.08;;;;;;;;;;5464197;26;20011;-77
2024/04/12 06:25:45;;;;;;;1.13;0.93;;;;;;;;;;5436267;26;20045;-77
2024/04/12 06:28:12;;;;;;;1.92;1.45;;;;;;;;;;5438474;26;20006;-77
2024/04/12 06:30:43;;;;;;;2.00;1.80;;;;;;;;;;5438060;26;20437;-77
2024/04/12 06:33:12;;;;;;;1.77;1.67;;;;;;;;;;5422129;26;20071;-77
2024/04/12 06:35:49;;;;;;;1.67;1.58;;;;;;;;;;5417043;26;20011;-77
2024/04/12 06:38:25;;;;;;;2.33;1.70;;;;;;;;;;5396577;26;19995;-77
2024/04/12 06:40:53;;;;;;;4.53;2.10;;;;;;;;;;5412891;26;20018;-78
2024/04/12 06:43:20;;;;;;;1.90;1.80;;;;;;;;;;5404263;26;19999;-77
2024/04/12 06:45:56;;;;;;;2.20;2.00;;;;;;;;;;5417044;26;20341;-77
2024/04/12 06:48:26;;;;;;;1.77;1.67;;;;;;;;;;5418354;26;20015;-77
2024/04/12 06:50:56;;;;;;;1.73;1.58;;;;;;;;;;5424969;26;19999;-78
2024/04/12 06:53:23;;;;;;;1.95;1.70;;;;;;;;;;5415112;26;20059;-78
2024/04/12 06:55:59;;;;;;;1.52;1.42;;;;;;;;;;5414634;26;20015;-78
2024/04/12 06:58:27;;;;;;;2.33;1.60;;;;;;;;;;5439079;26;19988;-76
2024/04/12 07:01:05;;;;;;;1.65;1.30;;;;;;;;;;5425064;26;20002;-78
2024/04/12 07:03:32;;;;;;;1.98;1.70;;;;;;;;;;5439818;26;20040;-79
2024/04/12 07:06:00;;;;;;;3.85;2.20;;;;;;;;;;5439575;26;19995;-78
2024/04/12 07:08:27;;;;;;;2.72;2.15;;;;;;;;;;5430885;26;19984;-78
2024/04/12 07:10:54;;;;;;;3.13;2.40;;;;;;;;;;5441254;26;20024;-77
2024/04/12 07:13:21;;;;;;;2.55;1.70;;;;;;;;;;5439759;26;20002;-78
2024/04/12 07:15:50;;;;;;;2.53;2.30;;;;;;;;;;5422876;26;20001;-77
2024/04/12 07:18:17;;;;;;;2.92;1.88;;;;;;;;;;5401554;26;20000;-78
2024/04/12 07:20:44;;;;;;;1.38;1.27;;;;;;;;;;5420158;26;20003;-78
2024/04/12 07:23:16;;;;;;;3.55;1.80;;;;;;;;;;5421495;26;20047;-78
2024/04/12 07:25:45;;;;;;;2.20;1.90;;;;;;;;;;5421211;26;19996;-78
2024/04/12 07:28:14;;;;;;;2.13;1.70;;;;;;;;;;5420503;26;20359;-78
2024/04/12 07:30:44;;;;;;;2.95;1.85;;;;;;;;;;5388196;26;20003;-77
2024/04/12 07:33:17;;;;;;;1.35;1.25;;;;;;;;;;5409540;26;19995;-78
2024/04/12 07:35:48;;;;;;;1.40;1.30;;;;;;;;;;5424313;26;20007;-77
2024/04/12 07:38:14;;;;;;;1.80;1.30;;;;;;;;;;5421506;26;20107;-77
2024/04/12 07:40:43;;;;;;;1.30;1.30;;;;;;;;;;5425021;26;19995;-79
2024/04/12 07:43:10;;;;;;;1.25;1.20;;;;;;;;;;5408918;26;20091;-78
2024/04/12 07:45:40;;;;;;;1.60;1.50;;;;;;;;;;5425649;26;20012;-78
2024/04/12 07:48:22;;;;;;;1.58;1.48;;;;;;;;;;5451481;26;20000;-77
2024/04/12 07:50:54;;;;;;;1.52;1.42;;;;;;;;;;5445542;26;20010;-78
2024/04/12 07:53:23;;;;;;;2.15;1.40;;;;;;;;;;5412579;26;20021;-78
2024/04/12 07:56:08;;;;;;;2.42;1.27;;;;;;;;;;5412573;26;20076;-78
2024/04/12 07:58:40;;;;;;;1.50;1.40;;;;;;;;;;5417532;26;20055;-78
2024/04/12 08:01:15;;;;;;;1.13;1.10;;;;;;;;;;5417302;26;20000;-77
2024/04/12 08:03:41;;;;;;;1.83;1.23;;;;;;;;;;5403115;26;20493;-78
2024/04/12 08:06:18;;;;;;;1.35;1.25;;;;;;;;;;5416895;26;20334;-78
2024/04/12 08:08:45;;;;;;;1.60;1.33;;;;;;;;;;5402644;26;19996;-79
2024/04/12 08:11:34;;;;;;;1.33;1.20;;;;;;;;;;5417637;26;20458;-78
2024/04/12 08:14:19;;;;;;;1.10;1.10;;;;;;;;;;5416414;26;19999;-78
2024/04/12 08:16:46;;;;;;;1.42;1.33;;;;;;;;;;5420465;26;20011;-78
2024/04/12 08:19:13;;;;;;;1.67;1.58;;;;;;;;;;5408028;26;20017;-78
2024/04/12 08:21:43;;;;;;;1.52;1.42;;;;;;;;;;5409426;26;20451;-79
2024/04/12 08:24:10;;;;;;;3.55;2.33;;;;;;;;;;5403585;26;20393;-78
2024/04/12 08:26:45;;;;;;;3.28;2.33;;;;;;;;;;5419285;26;20003;-77
2024/04/12 08:29:20;;;;;;;2.20;2.00;;;;;;;;;;5418260;26;19995;-78
2024/04/12 08:31:47;;;;;;;3.25;2.50;;;;;;;;;;5419753;26;20018;-77
2024/04/12 08:34:15;;;;;;;3.03;2.72;;;;;;;;;;5423137;26;20094;-78
2024/04/12 08:36:43;;;;;;;3.63;2.53;;;;;;;;;;5409791;26;19996;-79
2024/04/12 08:39:12;;;;;;;2.85;2.00;;;;;;;;;;5407008;26;20000;-79
2024/04/12 08:41:39;;;;;;;1.70;1.60;;;;;;;;;;5413957;26;20138;-79
2024/04/12 08:44:12;;;;;;;3.22;2.47;;;;;;;;;;5408231;26;19996;-79
2024/04/12 08:46:40;;;;;;;2.72;1.98;;;;;;;;;;5426594;26;20007;-78
2024/04/12 08:49:13;;;;;;;2.17;1.98;;;;;;;;;;5413066;26;20069;-78
2024/04/12 08:51:40;;;;;;;2.35;1.80;;;;;;;;;;5423533;26;20318;-77
2024/04/12 08:54:09;;;;;;;2.20;1.27;;;;;;;;;;5431976;26;20000;-78
2024/04/12 08:56:35;;;;;;;1.42;1.33;;;;;;;;;;5421204;26;19997;-78
2024/04/12 08:59:07;;;;;;;1.55;1.40;;;;;;;;;;5438715;26;19998;-78
2024/04/12 09:01:35;;;;;;;;;;;;;;;;;;5438086;26;19995;-78
2024/04/12 09:04:04;;;;;;;1.70;1.08;;;;;;;;;;5421111;26;19932;-78
2024/04/12 09:06:35;;;;;;;1.70;1.23;;;;;;;;;;5461148;26;19992;-78
2024/04/12 09:09:01;;;;;;;1.05;0.88;;;;;;;;;;5421109;26;19994;-77
2024/04/12 09:11:27;;;;;;;3.17;1.40;;;;;;;;;;5429971;26;20003;-78
2024/04/12 09:13:54;;;;;;;3.28;1.30;;;;;;;;;;5425739;26;20004;-79
2024/04/12 09:16:20;;;;;;;1.42;1.33;;;;;;;;;;5440744;26;20006;-78
2024/04/12 09:18:51;;;;;;;1.10;1.00;;;;;;;;;;5426246;26;20007;-77
2024/04/12 09:21:36;;;;;;;0.98;0.73;;;;;;;;;;5441369;26;20002;-78
2024/04/12 09:24:09;;;;;;;2.30;2.10;;;;;;;;;;5440966;26;19988;-78
2024/04/12 09:26:55;;;;;;;1.38;1.27;;;;;;;;;;5429600;26;20529;-78
2024/04/12 09:29:27;;;;;;;2.42;1.60;;;;;;;;;;5394992;26;20457;-79
2024/04/12 09:34:39;;;;;;;1.45;1.35;;;;;;;;;;5434648;26;20006;-77
2024/04/12 09:40:04;;;;;;;1.25;1.17;;;;;;;;;;5413006;26;20014;-78
2024/04/12 09:45:22;;;;;;;3.90;1.98;;;;;;;;;;5440076;26;19998;-78
2024/04/12 10:38:04;;;;;;;3.08;2.80;;;;;;;;;;5420351;26;20002;-76
2024/04/12 10:40:33;;;;;;;5.30;2.88;;;;;;;;;;5411125;26;20011;-76
2024/04/12 10:42:59;;;;;;;7.40;2.47;;;;;;;;;;5443449;26;20004;-76
2024/04/12 10:45:29;;;;;;;2.75;2.25;;;;;;;;;;5408651;26;20437;-76
2024/04/12 10:47:56;;;;;;;2.45;1.80;;;;;;;;;;5419253;26;20169;-75
2024/04/12 10:50:23;;;;;;;3.42;2.55;;;;;;;;;;5416489;26;19995;-76
2024/04/12 10:52:51;;;;;;;1.95;1.50;;;;;;;;;;5402276;26;20031;-76
2024/04/12 10:55:19;;;;;;;1.65;1.25;;;;;;;;;;5416354;26;20009;-76
2024/04/12 10:57:49;;;;;;;4.05;2.65;;;;;;;;;;5419556;26;20024;-75
2024/04/12 11:00:17;;;;;;;4.30;3.10;;;;;;;;;;5457507;26;20000;-76
2024/04/12 11:02:43;;;;;;;2.85;1.60;;;;;;;;;;5426175;26;20000;-75
2024/04/12 11:07:49;;;;;;;2.13;1.70;;;;;;;;;;5429282;26;20049;-76
2024/04/12 11:10:25;;;;;;;1.70;1.38;;;;;;;;;;5405009;26;20000;-74
2024/04/12 11:13:08;;;;;;;0.80;0.80;;;;;;;;;;5403275;26;20016;-75
2024/04/12 11:32:12;;;;;;;2.28;1.55;;;;;;;;;;5394783;26;20483;-76
2024/04/12 11:34:41;;;;;;;5.35;3.42;;;;;;;;;;5406980;26;20014;-77
2024/04/12 11:37:07;;;;;;;3.05;2.75;;;;;;;;;;5412927;26;20035;-76
2024/04/12 11:39:38;;;;;;;2.10;1.90;;;;;;;;;;5384533;26;19992;-75
2024/04/12 11:42:07;;;;;;;2.05;1.80;;;;;;;;;;5411564;26;20118;-76
2024/04/12 11:44:35;;;;;;;5.38;2.95;;;;;;;;;;5415780;26;20471;-77
2024/04/12 11:47:05;;;;;;;5.72;3.17;;;;;;;;;;5415777;26;20409;-76
2024/04/12 11:49:49;;;;;;;3.47;2.75;;;;;;;;;;5408680;26;20014;-76
2024/04/12 11:52:15;;;;;;;2.63;1.92;;;;;;;;;;5408418;26;19997;-76
2024/04/12 11:54:51;;;;;;;2.67;1.45;;;;;;;;;;5408942;26;20145;-76
2024/04/12 11:57:22;;;;;;;2.80;2.20;;;;;;;;;;5416418;26;20338;-74
2024/04/12 11:59:54;;;;;;;8.60;3.15;;;;;;;;;;5403932;26;19996;-76
2024/04/12 12:02:22;;;;;;;;;;;;;;;;;;5417547;26;20006;-76
2024/04/12 12:04:49;;;;;;;2.10;1.98;;;;;;;;;;5415591;26;19932;-75
2024/04/12 12:07:16;;;;;;;3.58;2.42;;;;;;;;;;5402791;26;20650;-76
2024/04/12 12:09:47;;;;;;;2.00;1.40;;;;;;;;;;5460545;26;19999;-75
2024/04/12 12:12:16;;;;;;;2.63;1.83;;;;;;;;;;5419265;26;20077;-75
2024/04/12 12:14:42;;;;;;;1.65;1.50;;;;;;;;;;5417442;26;20514;-76
2024/04/12 12:17:09;;;;;;;5.00;3.28;;;;;;;;;;5419685;26;20342;-77
2024/04/12 12:19:36;;;;;;;4.10;3.17;;;;;;;;;;5419913;26;20006;-77
2024/04/12 12:22:02;;;;;;;3.28;2.65;;;;;;;;;;5448872;26;19995;-77
2024/04/12 12:24:30;;;;;;;5.22;2.97;;;;;;;;;;5447462;26;19995;-77
2024/04/12 12:26:58;;;;;;;4.75;3.00;;;;;;;;;;5422366;26;19996;-77
2024/04/12 12:32:34;;;;;;;3.28;2.08;;;;;;;;;;5372499;26;20007;-77
2024/04/12 12:35:01;;;;;;;1.83;1.50;;;;;;;;;;5418131;26;19995;-77
2024/04/12 12:37:28;;;;;;;3.17;2.20;;;;;;;;;;5403373;26;20044;-77
2024/04/12 12:39:55;;;;;;;2.38;1.90;;;;;;;;;;5411832;26;20003;-77
2024/04/12 12:42:21;;;;;;;1.73;1.42;;;;;;;;;;5407504;26;20006;-77
2024/04/12 12:44:48;;;;;;;4.65;3.30;;;;;;;;;;5418900;26;20006;-78
2024/04/12 12:47:20;;;;;;;3.40;2.50;;;;;;;;;;5418569;26;20094;-78
2024/04/12 12:49:53;;;;;;;;;;;;;;;;;;5416860;26;20000;-78
2024/04/12 12:52:19;;;;;;;4.13;1.90;;;;;;;;;;5424229;26;19924;-78
2024/04/12 12:54:45;;;;;;;2.90;1.90;;;;;;;;;;5440812;26;19999;-79
2024/04/12 12:57:14;;;;;;;4.80;3.45;;;;;;;;;;5421651;26;20008;-78
2024/04/12 12:59:43;;;;;;;7.05;3.50;;;;;;;;;;5437053;26;19999;-78
2024/04/12 13:02:14;;;;;;;2.55;1.92;;;;;;;;;;5440301;26;19999;-77
2024/04/12 13:04:43;;;;;;;1.63;1.40;;;;;;;;;;5405506;26;19999;-78
2024/04/12 13:07:10;;;;;;;1.80;1.67;;;;;;;;;;5440680;26;20377;-78
2024/04/12 13:09:37;;;;;;;6.65;4.28;;;;;;;;;;5421650;26;20007;-78
2024/04/12 13:12:04;;;;;;;5.35;3.80;;;;;;;;;;5422647;26;19999;-78
2024/04/12 13:14:31;;;;;;;3.17;2.47;;;;;;;;;;5459859;26;19996;-78
2024/04/12 13:16:57;;;;;;;2.22;2.03;;;;;;;;;;5419451;26;20004;-77
2024/04/12 13:19:23;;;;;;;3.20;1.73;;;;;;;;;;5418283;26;20006;-77
2024/04/12 13:21:51;;;;;;;6.03;3.80;;;;;;;;;;5419710;26;20014;-78
2024/04/12 13:24:18;;;;;;;7.03;4.90;;;;;;;;;;5421484;26;19999;-78
2024/04/12 13:26:50;;;;;;;5.13;2.60;;;;;;;;;;5450362;26;20010;-78
2024/04/12 13:29:16;;;;;;;;;;;;;;;;;;5409526;26;20003;-78
2024/04/12 13:31:43;;;;;;;6.13;3.08;;;;;;;;;;5421677;26;19932;-78
2024/04/12 13:34:09;;;;;;;5.45;4.22;;;;;;;;;;5423319;26;20003;-78
2024/04/12 13:36:35;;;;;;;3.22;1.95;;;;;;;;;;5451258;26;20000;-79
2024/04/12 13:39:05;;;;;;;2.13;1.92;;;;;;;;;;5401328;26;20035;-78
2024/04/12 13:41:34;;;;;;;1.50;1.35;;;;;;;;;;5422882;26;20039;-77
2024/04/12 13:44:00;;;;;;;2.80;1.80;;;;;;;;;;5429143;26;19999;-78
2024/04/12 13:54:50;;;;;;;3.00;2.38;;;;;;;;;;5413161;26;20370;-76
2024/04/12 13:57:17;;;;;;;2.63;1.70;;;;;;;;;;5421252;26;20004;-76
2024/04/12 13:59:44;;;;;;;6.82;3.97;;;;;;;;;;5423316;26;20324;-78
2024/04/12 14:02:11;;;;;;;4.88;2.15;;;;;;;;;;5410319;26;20073;-77
2024/04/12 14:04:38;;;;;;;9.63;5.18;;;;;;;;;;5417068;26;20458;-76
2024/04/12 14:07:05;;;;;;;4.97;3.33;;;;;;;;;;5416973;26;19995;-76
2024/04/12 14:09:31;;;;;;;4.13;3.05;;;;;;;;;;5411295;26;20446;-76
2024/04/12 14:11:57;;;;;;;5.13;3.50;;;;;;;;;;5415395;26;20004;-76
2024/04/12 14:14:23;;;;;;;5.40;3.20;;;;;;;;;;5381397;26;20004;-77
2024/04/12 14:16:51;;;;;;;6.15;3.63;;;;;;;;;;5381646;26;20125;-77
2024/04/12 14:20:12;;;;;;;4.70;2.85;;;;;;;;;;5392685;26;19992;-78
2024/04/12 14:22:39;;;;;;;5.20;3.25;;;;;;;;;;5241068;27;20004;-76
2024/04/12 14:25:08;;;;;;;2.80;1.80;;;;;;;;;;5272207;27;20368;-77
2024/04/12 14:27:35;;;;;;;2.38;1.92;;;;;;;;;;5360648;26;20376;-76
2024/04/12 14:30:03;;;;;;;3.30;2.30;;;;;;;;;;5455645;26;20057;-76
2024/04/12 14:32:53;;;;;;;3.30;2.42;;;;;;;;;;5428948;26;20086;-77
2024/04/12 14:35:19;;;;;;;2.40;2.17;;;;;;;;;;5413788;26;19992;-77
2024/04/12 14:37:46;;;;;;;3.75;2.30;;;;;;;;;;5427130;26;19999;-76
2024/04/12 14:40:18;;;;;;;2.40;2.05;;;;;;;;;;5402685;26;20003;-76
2024/04/12 14:42:48;;;;;;;1.52;1.42;;;;;;;;;;5408094;26;20676;-77
2024/04/12 14:45:14;;;;;;;4.45;2.25;;;;;;;;;;5416940;26;20003;-77
2024/04/12 14:47:40;;;;;;;7.95;4.30;;;;;;;;;;5416533;26;20400;-77
2024/04/12 14:50:10;;;;;;;6.90;3.05;;;;;;;;;;5417119;26;19999;-75
2024/04/12 14:52:43;;;;;;;2.15;1.67;;;;;;;;;;5390051;26;19996;-76
2024/04/12 14:55:12;;;;;;;5.45;2.60;;;;;;;;;;5400487;26;20000;-76
2024/04/12 14:57:47;;;;;;;6.00;3.13;;;;;;;;;;5402762;26;20004;-77
2024/04/12 15:00:14;;;;;;;3.63;3.25;;;;;;;;;;5386278;26;20462;-76
2024/04/12 15:49:21;;;;;;;3.72;2.03;;;;;;;;;;5432373;26;20006;-77
2024/04/12 15:51:47;;;;;;;;;;;;;;;;;;5415783;26;19995;-76
2024/04/12 15:54:13;;;;;;;1.45;0.90;;;;;;;;;;5436036;26;19932;-76
2024/04/12 16:10:49;;;;;;;1.95;1.38;;;;;;;;;;5397142;26;20073;-77
2024/04/12 16:13:21;;;;;;;1.10;1.00;;;;;;;;;;5385771;26;21633;-76
2024/04/12 16:15:51;;;;;;;2.40;2.20;;;;;;;;;;5416331;26;20031;-76
2024/04/12 16:18:18;;;;;;;3.35;2.55;;;;;;;;;;5443843;26;20012;-76
2024/04/12 16:20:44;;;;;;;4.35;2.88;;;;;;;;;;5416056;26;20003;-77
2024/04/12 16:23:16;;;;;;;2.45;2.25;;;;;;;;;;5399402;26;20007;-76
2024/04/12 16:25:42;;;;;;;4.57;3.08;;;;;;;;;;5416054;26;20144;-78
2024/04/12 16:28:08;;;;;;;3.67;3.03;;;;;;;;;;5416124;26;20015;-76
2024/04/12 16:30:34;;;;;;;7.65;3.67;;;;;;;;;;5399325;26;20051;-77
2024/04/12 16:33:00;;;;;;;3.65;2.35;;;;;;;;;;5415496;26;20322;-77
2024/04/12 16:35:26;;;;;;;3.22;2.00;;;;;;;;;;5416458;26;19999;-76
2024/04/12 16:37:53;;;;;;;1.30;1.20;;;;;;;;;;5409277;26;20081;-77
2024/04/12 16:40:19;;;;;;;3.55;1.67;;;;;;;;;;5400690;26;20011;-76
2024/04/12 16:42:45;;;;;;;6.97;3.10;;;;;;;;;;5401953;26;20002;-76
2024/04/12 16:45:11;;;;;;;3.17;2.17;;;;;;;;;;5425710;26;19995;-77
2024/04/12 16:47:37;;;;;;;1.45;1.30;;;;;;;;;;5466315;26;19999;-77
2024/04/12 16:50:05;;;;;;;6.28;4.70;;;;;;;;;;5415471;26;20003;-77
2024/04/12 16:52:31;;;;;;;2.78;2.42;;;;;;;;;;5411188;26;19995;-77
2024/04/12 16:54:57;;;;;;;5.72;3.80;;;;;;;;;;5422109;26;20023;-76
2024/04/12 16:57:23;;;;;;;7.43;5.22;;;;;;;;;;5419984;26;20015;-75
2024/04/12 16:59:49;;;;;;;5.80;4.05;;;;;;;;;;5405059;26;20356;-76
2024/04/12 17:02:16;;;;;;;5.82;3.33;;;;;;;;;;5397533;26;20000;-77
2024/04/12 17:04:42;;;;;;;8.00;3.47;;;;;;;;;;5419451;26;20361;-76
2024/04/12 17:07:08;;;;;;;3.42;2.70;;;;;;;;;;5446633;26;20479;-77
2024/04/12 17:09:35;;;;;;;2.65;1.55;;;;;;;;;;5401536;26;20008;-76
2024/04/12 17:12:01;;;;;;;1.40;1.30;;;;;;;;;;5398568;26;19999;-77
2024/04/12 17:14:28;;;;;;;2.53;2.33;;;;;;;;;;5446483;26;20009;-77
2024/04/12 17:16:54;;;;;;;7.25;4.20;;;;;;;;;;5403439;26;20081;-76
2024/04/12 17:19:20;;;;;;;2.50;2.30;;;;;;;;;;5420242;26;20024;-77
2024/04/12 17:21:53;;;;;;;3.08;2.10;;;;;;;;;;5423862;26;20319;-77
2024/04/12 17:24:19;;;;;;;2.15;1.83;;;;;;;;;;5401825;26;20039;-77
2024/04/12 17:26:45;;;;;;;6.18;4.68;;;;;;;;;;5415037;26;20024;-76
2024/04/12 17:29:12;;;;;;;6.95;4.00;;;;;;;;;;5424122;26;20318;-77
2024/04/12 17:31:38;;;;;;;4.00;3.47;;;;;;;;;;5423366;26;20000;-77
2024/04/12 17:34:04;;;;;;;7.78;2.95;;;;;;;;;;5429615;26;19996;-76